Time,TemperatureF,DewpointF,PressureIn,WindDirection,WindDirectionDegrees,WindSpeedMPH,WindSpeedGustMPH,Humidity,HourlyPrecipIn,Conditions,Clouds,dailyrainin,SolarRadiationWatts/m^2,SoftwareType,DateUTC
2013-11-04 00:21:00,36.0,13.0,-100.00,NW,316,3.0,10.0,38,0.00,,,0.00,0.000000,,2013-11-04 07:21:00,
2013-11-04 00:32:00,36.0,13.0,-100.00,NW,316,3.0,10.0,38,0.00,,,0.00,0.000000,,2013-11-04 07:32:00,
2013-11-04 00:42:00,36.0,13.0,-100.00,NW,316,3.0,10.0,38,0.00,,,0.00,0.000000,,2013-11-04 07:42:00,
2013-11-04 00:52:00,36.0,13.0,-100.00,NW,316,3.0,10.0,38,0.00,,,0.00,0.000000,,2013-11-04 07:52:00,
2013-11-04 02:21:00,34.0,11.0,-100.00,North,4,5.0,9.0,38,0.00,,,0.00,0.000000,,2013-11-04 09:21:00,
2013-11-04 02:33:00,34.0,11.0,-100.00,North,4,5.0,9.0,38,0.00,,,0.00,0.000000,,2013-11-04 09:33:00,
2013-11-04 02:43:00,34.0,11.0,-100.00,North,4,5.0,9.0,38,0.00,,,0.00,0.000000,,2013-11-04 09:43:00,
2013-11-04 02:53:00,34.0,11.0,-100.00,North,4,5.0,9.0,38,0.00,,,0.00,0.000000,,2013-11-04 09:53:00,
2013-11-04 03:23:00,32.0,11.0,-100.00,SE,146,3.0,14.0,41,0.00,,,0.00,0.000000,,2013-11-04 10:23:00,
2013-11-04 03:33:00,32.0,11.0,-100.00,SE,146,3.0,14.0,41,0.00,,,0.00,0.000000,,2013-11-04 10:33:00,
2013-11-04 03:42:00,32.0,11.0,-100.00,SE,146,3.0,14.0,41,0.00,,,0.00,0.000000,,2013-11-04 10:42:00,
2013-11-04 03:52:00,32.0,11.0,-100.00,SE,146,3.0,14.0,41,0.00,,,0.00,0.000000,,2013-11-04 10:52:00,
2013-11-04 04:22:00,33.0,10.0,-100.00,NNW,336,4.0,5.0,37,0.00,,,0.00,0.000000,,2013-11-04 11:22:00,
2013-11-04 04:32:00,33.0,10.0,-100.00,NNW,336,4.0,5.0,37,0.00,,,0.00,0.000000,,2013-11-04 11:32:00,
2013-11-04 04:42:00,33.0,10.0,-100.00,NNW,336,4.0,5.0,37,0.00,,,0.00,0.000000,,2013-11-04 11:42:00,
2013-11-04 04:52:00,33.0,10.0,-100.00,NNW,336,4.0,5.0,37,0.00,,,0.00,0.000000,,2013-11-04 11:52:00,
2013-11-04 05:22:00,31.0,9.0,-100.00,SW,224,1.0,4.0,39,0.00,,,0.00,0.000000,,2013-11-04 12:22:00,
2013-11-04 05:32:00,31.0,9.0,-100.00,SW,224,1.0,4.0,39,0.00,,,0.00,0.000000,,2013-11-04 12:32:00,
2013-11-04 05:42:00,31.0,9.0,-100.00,SW,224,1.0,4.0,39,0.00,,,0.00,0.000000,,2013-11-04 12:42:00,
2013-11-04 05:52:00,31.0,9.0,-100.00,SW,224,1.0,4.0,39,0.00,,,0.00,0.000000,,2013-11-04 12:52:00,
2013-11-04 06:21:00,32.0,10.0,-100.00,NNW,330,3.0,5.0,40,0.00,,,0.00,0.000000,,2013-11-04 13:21:00,
2013-11-04 06:32:00,32.0,10.0,-100.00,NNW,330,3.0,5.0,40,0.00,,,0.00,0.000000,,2013-11-04 13:32:00,
2013-11-04 06:42:00,32.0,10.0,-100.00,NNW,330,3.0,5.0,40,0.00,,,0.00,0.000000,,2013-11-04 13:42:00,
2013-11-04 06:52:00,32.0,10.0,-100.00,NNW,330,3.0,5.0,40,0.00,,,0.00,0.000000,,2013-11-04 13:52:00,
2013-11-04 07:22:00,32.0,13.0,-100.00,North,0,2.0,4.0,44,0.00,,,0.00,6.000000,,2013-11-04 14:22:00,
2013-11-04 07:32:00,32.0,13.0,-100.00,North,0,2.0,4.0,44,0.00,,,0.00,6.000000,,2013-11-04 14:32:00,
2013-11-04 07:42:00,32.0,13.0,-100.00,North,0,2.0,4.0,44,0.00,,,0.00,6.000000,,2013-11-04 14:42:00,
2013-11-04 07:52:00,32.0,13.0,-100.00,North,0,2.0,4.0,44,0.00,,,0.00,6.000000,,2013-11-04 14:52:00,
2013-11-04 09:23:00,41.0,17.0,-100.00,South,184,5.0,7.0,37,-99.99,,,0.00,301.000000,,2013-11-04 16:23:00,
2013-11-04 09:33:00,41.0,17.0,-100.00,South,184,5.0,7.0,37,-99.99,,,0.00,301.000000,,2013-11-04 16:33:00,
2013-11-04 09:43:00,41.0,17.0,-100.00,South,184,5.0,7.0,37,-99.99,,,0.00,301.000000,,2013-11-04 16:43:00,
2013-11-04 09:53:00,41.0,17.0,-100.00,South,184,5.0,7.0,37,-99.99,,,0.00,301.000000,,2013-11-04 16:53:00,
2013-11-04 10:22:00,42.0,16.0,-100.00,SSE,166,5.0,9.0,35,0.00,,,-99.99,388.000000,,2013-11-04 17:22:00,
2013-11-04 10:33:00,42.0,16.0,-100.00,SSE,166,5.0,9.0,35,0.00,,,-99.99,388.000000,,2013-11-04 17:33:00,
2013-11-04 10:42:00,42.0,16.0,-100.00,SSE,166,5.0,9.0,35,0.00,,,-99.99,388.000000,,2013-11-04 17:42:00,
2013-11-04 10:53:00,42.0,16.0,-100.00,SSE,166,5.0,9.0,35,0.00,,,-99.99,388.000000,,2013-11-04 17:53:00,
2013-11-04 11:23:00,45.0,16.0,-100.00,SE,131,6.0,11.0,31,0.00,,,0.00,480.000000,,2013-11-04 18:23:00,
2013-11-04 11:32:00,45.0,16.0,-100.00,SE,131,6.0,11.0,31,0.00,,,0.00,480.000000,,2013-11-04 18:32:00,
2013-11-04 11:42:00,45.0,16.0,-100.00,SE,131,6.0,11.0,31,0.00,,,0.00,480.000000,,2013-11-04 18:42:00,
2013-11-04 11:52:00,45.0,16.0,-100.00,SE,131,6.0,11.0,31,0.00,,,0.00,480.000000,,2013-11-04 18:52:00,
2013-11-04 12:22:00,45.0,17.0,-100.00,SE,146,10.0,15.0,32,0.00,,,0.00,481.000000,,2013-11-04 19:22:00,
2013-11-04 12:33:00,45.0,17.0,-100.00,SE,146,10.0,15.0,32,0.00,,,0.00,481.000000,,2013-11-04 19:33:00,
2013-11-04 12:42:00,45.0,17.0,-100.00,SE,146,10.0,15.0,32,0.00,,,0.00,481.000000,,2013-11-04 19:42:00,
2013-11-04 12:52:00,45.0,17.0,-100.00,SE,146,10.0,15.0,32,0.00,,,0.00,481.000000,,2013-11-04 19:52:00,
2013-11-04 13:22:00,44.0,19.0,-100.00,South,178,8.0,16.0,36,0.00,,,0.00,393.000000,,2013-11-04 20:22:00,
2013-11-04 13:32:00,44.0,19.0,-100.00,South,178,8.0,16.0,36,0.00,,,0.00,393.000000,,2013-11-04 20:32:00,
2013-11-04 13:42:00,44.0,19.0,-100.00,South,178,8.0,16.0,36,0.00,,,0.00,393.000000,,2013-11-04 20:42:00,
2013-11-04 13:52:00,44.0,19.0,-100.00,South,178,8.0,16.0,36,0.00,,,0.00,393.000000,,2013-11-04 20:52:00,
2013-11-04 14:22:00,43.0,19.0,-100.00,South,170,7.0,15.0,38,0.00,,,0.00,245.000000,,2013-11-04 21:22:00,
2013-11-04 14:34:00,43.0,19.0,-100.00,South,170,7.0,15.0,38,0.00,,,0.00,245.000000,,2013-11-04 21:34:00,
2013-11-04 14:44:00,43.0,19.0,-100.00,South,170,7.0,15.0,38,0.00,,,0.00,245.000000,,2013-11-04 21:44:00,
2013-11-04 14:54:00,43.0,19.0,-100.00,South,170,7.0,15.0,38,0.00,,,0.00,245.000000,,2013-11-04 21:54:00,
2013-11-04 15:23:00,43.0,21.0,-100.00,South,182,5.0,13.0,41,0.00,,,0.00,152.000000,,2013-11-04 22:23:00,
2013-11-04 15:33:00,43.0,21.0,-100.00,South,182,5.0,13.0,41,0.00,,,0.00,152.000000,,2013-11-04 22:33:00,
2013-11-04 15:43:00,43.0,21.0,-100.00,South,182,5.0,13.0,41,0.00,,,0.00,152.000000,,2013-11-04 22:43:00,
2013-11-04 15:53:00,43.0,21.0,-100.00,South,182,5.0,13.0,41,0.00,,,0.00,152.000000,,2013-11-04 22:53:00,
2013-11-04 16:22:00,41.0,22.0,-100.00,SSW,198,6.0,9.0,46,0.00,,,0.00,88.000000,,2013-11-04 23:22:00,
2013-11-04 16:33:00,41.0,22.0,-100.00,SSW,198,6.0,9.0,46,0.00,,,0.00,88.000000,,2013-11-04 23:33:00,
2013-11-04 16:43:00,41.0,22.0,-100.00,SSW,198,6.0,9.0,46,0.00,,,0.00,88.000000,,2013-11-04 23:43:00,
2013-11-04 16:53:00,41.0,22.0,-100.00,SSW,198,6.0,9.0,46,0.00,,,0.00,88.000000,,2013-11-04 23:53:00,
2013-11-04 17:22:00,40.0,23.0,-100.00,WSW,254,1.0,7.0,51,0.00,,,0.00,22.000000,,2013-11-05 00:22:00,
2013-11-04 17:32:00,40.0,23.0,-100.00,WSW,254,1.0,7.0,51,0.00,,,0.00,22.000000,,2013-11-05 00:32:00,
2013-11-04 17:42:00,40.0,23.0,-100.00,WSW,254,1.0,7.0,51,0.00,,,0.00,22.000000,,2013-11-05 00:42:00,
2013-11-04 17:52:00,40.0,23.0,-100.00,WSW,254,1.0,7.0,51,0.00,,,0.00,22.000000,,2013-11-05 00:52:00,
2013-11-04 18:21:00,39.0,23.0,-100.00,NNW,338,2.0,4.0,53,0.00,,,0.00,1.000000,,2013-11-05 01:21:00,
2013-11-04 18:32:00,39.0,23.0,-100.00,NNW,338,2.0,4.0,53,0.00,,,0.00,1.000000,,2013-11-05 01:32:00,
2013-11-04 18:42:00,39.0,23.0,-100.00,NNW,338,2.0,4.0,53,0.00,,,0.00,1.000000,,2013-11-05 01:42:00,
2013-11-04 18:52:00,39.0,23.0,-100.00,NNW,338,2.0,4.0,53,0.00,,,0.00,1.000000,,2013-11-05 01:52:00,
2013-11-04 19:22:00,39.0,24.0,-100.00,ESE,104,2.0,6.0,54,0.00,,,0.00,0.000000,,2013-11-05 02:22:00,
2013-11-04 19:32:00,39.0,24.0,-100.00,ESE,104,2.0,6.0,54,0.00,,,0.00,0.000000,,2013-11-05 02:32:00,
2013-11-04 19:42:00,39.0,24.0,-100.00,ESE,104,2.0,6.0,54,0.00,,,0.00,0.000000,,2013-11-05 02:42:00,
2013-11-04 19:52:00,39.0,24.0,-100.00,ESE,104,2.0,6.0,54,0.00,,,0.00,0.000000,,2013-11-05 02:52:00,
2013-11-04 20:22:00,37.0,27.0,-100.00,ENE,61,5.0,10.0,66,0.00,,,0.00,0.000000,,2013-11-05 03:22:00,
2013-11-04 20:33:00,37.0,27.0,-100.00,ENE,61,5.0,10.0,66,0.00,,,0.00,0.000000,,2013-11-05 03:33:00,
2013-11-04 20:44:00,37.0,27.0,-100.00,ENE,61,5.0,10.0,66,0.00,,,0.00,0.000000,,2013-11-05 03:44:00,
2013-11-04 20:54:00,37.0,27.0,-100.00,ENE,61,5.0,10.0,66,0.00,,,0.00,0.000000,,2013-11-05 03:54:00,
2013-11-04 21:23:00,33.0,31.0,-100.00,ENE,71,7.0,11.0,93,0.00,,,0.00,0.000000,,2013-11-05 04:23:00,
2013-11-04 21:34:00,33.0,31.0,-100.00,ENE,71,7.0,11.0,93,0.00,,,0.00,0.000000,,2013-11-05 04:34:00,
2013-11-04 21:43:00,33.0,31.0,-100.00,ENE,71,7.0,11.0,93,0.00,,,0.00,0.000000,,2013-11-05 04:43:00,
2013-11-04 21:53:00,33.0,31.0,-100.00,ENE,71,7.0,11.0,93,0.00,,,0.00,0.000000,,2013-11-05 04:53:00,
2013-11-04 22:23:00,34.0,32.0,-100.00,NE,49,4.0,9.0,92,0.00,,,0.00,0.000000,,2013-11-05 05:23:00,
2013-11-04 22:34:00,34.0,32.0,-100.00,NE,49,4.0,9.0,92,0.00,,,0.00,0.000000,,2013-11-05 05:34:00,
2013-11-04 22:43:00,34.0,32.0,-100.00,NE,49,4.0,9.0,92,0.00,,,0.00,0.000000,,2013-11-05 05:43:00,
2013-11-04 22:53:00,34.0,32.0,-100.00,NE,49,4.0,9.0,92,0.00,,,0.00,0.000000,,2013-11-05 05:53:00,
2013-11-04 23:21:00,33.0,32.0,-100.00,ENE,67,4.0,7.0,96,0.00,,,0.00,0.000000,,2013-11-05 06:21:00,
2013-11-04 23:32:00,33.0,32.0,-100.00,ENE,67,4.0,7.0,96,0.00,,,0.00,0.000000,,2013-11-05 06:32:00,
2013-11-04 23:42:00,33.0,32.0,-100.00,ENE,67,4.0,7.0,96,0.00,,,0.00,0.000000,,2013-11-05 06:42:00,
2013-11-04 23:52:00,33.0,32.0,-100.00,ENE,67,4.0,7.0,96,0.00,,,0.00,0.000000,,2013-11-05 06:52:00,